createdAt,value
2022-08-17T00:00:57.673Z,64.4
2022-08-17T00:01:58.634Z,64.4
2022-08-17T00:02:59.613Z,64.4
2022-08-17T00:04:00.673Z,64.4
2022-08-17T00:05:01.714Z,64.3
2022-08-17T00:06:02.695Z,64.2
2022-08-17T00:07:03.494Z,64.1
2022-08-17T00:08:04.554Z,64.1
2022-08-17T00:09:05.554Z,64
2022-08-17T00:10:06.574Z,64
2022-08-17T00:11:07.574Z,63.9
2022-08-17T00:12:42.358Z,63.9
2022-08-17T00:13:09.634Z,63.8
2022-08-17T00:14:10.575Z,63.9
2022-08-17T00:15:11.595Z,63.8
2022-08-17T00:16:12.574Z,63.8
2022-08-17T00:17:13.554Z,63.7
2022-08-17T00:18:54.144Z,63.9
2022-08-17T00:19:15.554Z,64
2022-08-17T00:20:16.573Z,64
2022-08-17T00:21:23.685Z,64
2022-08-17T00:22:31.182Z,64.1
2022-08-17T00:23:20.594Z,64.1
2022-08-17T00:24:21.527Z,64
2022-08-17T00:25:22.542Z,63.9
2022-08-17T00:26:34.814Z,64
2022-08-17T00:27:24.553Z,64
2022-08-17T00:28:25.613Z,64
2022-08-17T00:29:26.553Z,64
2022-08-17T00:30:27.556Z,64
2022-08-17T00:31:28.622Z,64
2022-08-17T00:33:10.461Z,64
2022-08-17T00:33:31.167Z,64.1
2022-08-17T00:34:31.873Z,64.1
2022-08-17T00:35:32.548Z,64.1
2022-08-17T00:36:33.579Z,64.2
2022-08-17T00:37:34.574Z,64.2
2022-08-17T00:38:35.615Z,64.2
2022-08-17T00:39:36.594Z,64.3
2022-08-17T00:40:39.975Z,64.3
2022-08-17T00:41:40.124Z,64.6
2022-08-17T00:42:39.614Z,64.3
2022-08-17T00:43:40.593Z,64.7
2022-08-17T00:44:41.613Z,65.2
2022-08-17T00:45:42.635Z,65.4
2022-08-17T00:46:44.214Z,65.9
2022-08-17T00:47:45.554Z,66.1
2022-08-17T00:48:46.556Z,66.2
2022-08-17T00:49:47.536Z,66.2
2022-08-17T00:50:48.613Z,66.1
2022-08-17T00:51:49.574Z,66
2022-08-17T00:52:50.761Z,66
2022-08-17T00:53:51.553Z,65.9
2022-08-17T00:54:52.494Z,65.8
2022-08-17T00:55:53.673Z,65.7
2022-08-17T00:56:54.554Z,65.6
2022-08-17T00:57:55.846Z,65.5
2022-08-17T00:58:56.574Z,65.4
2022-08-17T01:00:02.882Z,65.4
2022-08-17T01:04:00.758Z,65.3
2022-08-17T01:05:01.723Z,65.3
2022-08-17T01:06:02.857Z,65.3
2022-08-17T01:07:04.595Z,65.5
2022-08-17T01:08:05.575Z,65.5
2022-08-17T01:09:06.594Z,65.1
2022-08-17T01:10:07.695Z,64.9
2022-08-17T01:11:08.538Z,64.8
2022-08-17T01:12:09.576Z,64.9
2022-08-17T01:13:10.594Z,65
2022-08-17T01:14:11.655Z,65
2022-08-17T01:15:12.755Z,65
2022-08-17T01:16:13.716Z,64.7
2022-08-17T01:17:14.663Z,64.8
2022-08-17T01:18:15.595Z,64.7
2022-08-17T01:19:16.655Z,64.9
2022-08-17T01:20:17.996Z,64.9
2022-08-17T01:21:19.635Z,64.9
2022-08-17T01:22:20.576Z,64.9
2022-08-17T01:23:21.595Z,64.8
2022-08-17T01:24:22.594Z,64.7
2022-08-17T01:25:23.635Z,64.6
2022-08-17T01:26:24.594Z,64.4
2022-08-17T01:27:25.635Z,64.2
2022-08-17T01:28:33.686Z,64.3
2022-08-17T01:29:27.616Z,64.3
2022-08-17T01:30:56.579Z,64.2
2022-08-17T01:31:29.585Z,63.9
2022-08-17T01:32:30.682Z,63.9
2022-08-17T01:33:31.594Z,64
2022-08-17T01:34:37.390Z,63.8
2022-08-17T01:35:33.614Z,63.9
2022-08-17T01:36:34.614Z,64.1
2022-08-17T01:37:35.715Z,64.1
2022-08-17T01:38:36.614Z,64.2
2022-08-17T01:39:37.813Z,63.9
2022-08-17T01:40:38.657Z,63.9
2022-08-17T01:41:39.696Z,63.8
2022-08-17T01:42:40.598Z,63.8
2022-08-17T01:43:41.614Z,64
2022-08-17T01:44:42.520Z,63.8
2022-08-17T01:45:43.595Z,63.7
2022-08-17T01:46:44.757Z,63.7
2022-08-17T01:47:45.654Z,63.7
2022-08-17T01:48:46.565Z,63.7
2022-08-17T01:49:47.558Z,63.5
2022-08-17T01:50:48.588Z,63.4
2022-08-17T01:51:49.615Z,63.4
2022-08-17T01:52:50.778Z,63.4
2022-08-17T01:53:51.694Z,63.5
2022-08-17T01:54:52.689Z,63.6
2022-08-17T01:55:53.574Z,63.7
2022-08-17T01:56:54.599Z,63.4
2022-08-17T01:57:55.654Z,63.7
2022-08-17T01:58:56.674Z,63.7
2022-08-17T01:59:57.623Z,63.7
2022-08-17T02:01:00.412Z,63.7
2022-08-17T02:01:59.682Z,63.7
2022-08-17T02:03:00.655Z,63.6
2022-08-17T02:04:02.014Z,63.6
2022-08-17T02:05:02.814Z,63.6
2022-08-17T02:06:05.164Z,63.5
2022-08-17T02:07:05.635Z,63.4
2022-08-17T02:08:06.634Z,63.3
2022-08-17T02:09:07.655Z,63.3
2022-08-17T02:10:20.212Z,63.4
2022-08-17T02:11:11.456Z,63.6
2022-08-17T02:12:38.685Z,63.7
2022-08-17T02:13:11.695Z,63.5
2022-08-17T02:14:12.694Z,63.7
2022-08-17T02:15:13.639Z,63.9
2022-08-17T02:16:14.735Z,64.1
2022-08-17T02:17:15.635Z,64
2022-08-17T02:18:16.875Z,63.9
2022-08-17T02:19:18.776Z,63.8
2022-08-17T02:20:36.382Z,63.8
2022-08-17T02:21:20.634Z,63.8
2022-08-17T02:22:21.655Z,63.6
2022-08-17T02:23:22.644Z,63.4
2022-08-17T02:24:59.192Z,63.5
2022-08-17T02:25:24.675Z,63.3
2022-08-17T02:26:26.193Z,63.3
2022-08-17T02:27:26.677Z,63.3
2022-08-17T02:28:27.640Z,63.3
2022-08-17T02:29:28.694Z,63.4
2022-08-17T02:30:58.992Z,63.4
2022-08-17T02:31:30.654Z,63.5
2022-08-17T02:32:31.634Z,63.4
2022-08-17T02:33:33.779Z,63.6
2022-08-17T02:34:33.634Z,63.7
2022-08-17T02:35:34.696Z,63.6
2022-08-17T02:36:35.683Z,63.6
2022-08-17T02:37:36.754Z,63.6
2022-08-17T02:38:37.715Z,63.7
2022-08-17T02:39:38.716Z,63.7
2022-08-17T02:40:39.655Z,63.7
2022-08-17T02:41:40.694Z,63.8
2022-08-17T02:42:41.758Z,63.7
2022-08-17T02:43:42.714Z,63.8
2022-08-17T02:44:43.675Z,63.8
2022-08-17T02:45:44.695Z,63.9
2022-08-17T02:46:45.782Z,63.7
2022-08-17T02:47:46.715Z,63.7
2022-08-17T02:48:47.674Z,63.7
2022-08-17T02:49:54.222Z,63.8
2022-08-17T02:50:49.654Z,63.8
2022-08-17T02:51:50.735Z,63.8
2022-08-17T02:53:01.350Z,63.9
2022-08-17T02:53:52.777Z,64
2022-08-17T02:54:53.715Z,64.1
2022-08-17T02:55:54.674Z,64.2
2022-08-17T02:56:55.754Z,64.3
2022-08-17T02:57:56.634Z,64.3
2022-08-17T02:58:57.674Z,64.3
2022-08-17T02:59:58.675Z,64.2
2022-08-17T03:00:59.655Z,64.2
2022-08-17T03:02:00.797Z,64.3
2022-08-17T03:03:01.683Z,64.4
2022-08-17T03:04:02.694Z,64.5
2022-08-17T03:05:03.694Z,64.5
2022-08-17T03:06:04.720Z,64.2
2022-08-17T03:07:05.694Z,64.5
2022-08-17T03:08:06.714Z,64.6
2022-08-17T03:09:07.715Z,64.8
2022-08-17T03:10:08.695Z,64.9
2022-08-17T03:11:09.694Z,65.1
2022-08-17T03:12:10.694Z,65.1
2022-08-17T03:13:11.714Z,65.1
2022-08-17T03:14:12.875Z,65.1
2022-08-17T03:15:14.656Z,65.1
2022-08-17T03:16:15.675Z,65.2
2022-08-17T03:17:17.278Z,65.1
2022-08-17T03:18:19.419Z,65.1
2022-08-17T03:19:18.759Z,65.1
2022-08-17T03:20:19.675Z,65.2
2022-08-17T03:21:20.654Z,65.2
2022-08-17T03:22:36.338Z,65.3
2022-08-17T03:23:23.641Z,65.2
2022-08-17T03:24:25.122Z,65.2
2022-08-17T03:25:24.694Z,65.2
2022-08-17T03:26:25.714Z,65.3
2022-08-17T03:27:26.714Z,65.2
2022-08-17T03:28:28.094Z,65.2
2022-08-17T03:29:29.726Z,65.1
2022-08-17T03:30:30.735Z,65.1
2022-08-17T03:31:31.714Z,65
2022-08-17T03:32:32.935Z,64.9
2022-08-17T03:33:34.914Z,65.1
2022-08-17T03:34:36.715Z,65.1
2022-08-17T03:35:37.667Z,65.1
2022-08-17T03:36:38.676Z,65
2022-08-17T03:37:39.656Z,64.9
2022-08-17T03:38:40.714Z,64.8
2022-08-17T03:39:41.720Z,64.6
2022-08-17T03:40:58.372Z,64.5
2022-08-17T03:41:43.794Z,64.5
2022-08-17T03:42:44.796Z,63.5
2022-08-17T03:43:45.675Z,64.2
2022-08-17T03:44:46.775Z,64.3
2022-08-17T03:45:47.674Z,64.3
2022-08-17T03:46:48.763Z,64.3
2022-08-17T03:47:49.737Z,64.3
2022-08-17T03:48:50.700Z,64.4
2022-08-17T03:49:51.695Z,64.2
2022-08-17T03:50:52.834Z,64.5
2022-08-17T03:51:53.700Z,64.5
2022-08-17T03:52:54.735Z,64.6
2022-08-17T03:53:55.754Z,64.6
2022-08-17T03:54:56.699Z,64.6
2022-08-17T03:55:57.734Z,64.6
2022-08-17T03:56:58.814Z,64.7
2022-08-17T03:57:59.754Z,64.7
2022-08-17T03:59:00.735Z,64.8
2022-08-17T04:00:01.740Z,64.9
2022-08-17T04:01:02.759Z,64.9
2022-08-17T04:02:03.754Z,64.9
2022-08-17T04:03:04.755Z,65
2022-08-17T04:04:05.720Z,65.1
2022-08-17T04:05:06.736Z,65.2
2022-08-17T04:06:07.696Z,65.3
2022-08-17T04:07:08.734Z,65.4
2022-08-17T04:08:09.716Z,65.5
2022-08-17T04:09:10.714Z,65.8
2022-08-17T04:10:11.695Z,65.6
2022-08-17T04:11:12.795Z,65.6
2022-08-17T04:12:13.755Z,65.4
2022-08-17T04:13:14.755Z,65.4
2022-08-17T04:14:15.654Z,65.3
2022-08-17T04:15:16.814Z,65.4
2022-08-17T04:16:17.675Z,65.5
2022-08-17T04:17:18.754Z,65.4
2022-08-17T04:18:20.000Z,65.3
2022-08-17T04:19:21.763Z,65.4
2022-08-17T04:20:22.695Z,65.3
2022-08-17T04:21:23.655Z,65.2
2022-08-17T04:22:29.870Z,65.2
2022-08-17T04:23:25.734Z,65.3
2022-08-17T04:24:26.695Z,65.4
2022-08-17T04:25:27.734Z,65.3
2022-08-17T04:26:50.562Z,65.2
2022-08-17T04:27:29.814Z,65.2
2022-08-17T04:28:30.689Z,65.1
2022-08-17T04:29:50.899Z,65
2022-08-17T04:30:32.894Z,64.9
2022-08-17T04:31:34.915Z,64.8
2022-08-17T04:32:58.740Z,64.6
2022-08-17T04:33:36.736Z,64.5
2022-08-17T04:34:37.677Z,63.9
2022-08-17T04:35:38.777Z,63.8
2022-08-17T04:36:39.776Z,63.7
2022-08-17T04:37:40.715Z,63.3
2022-08-17T04:38:41.717Z,63.1
2022-08-17T04:39:42.811Z,62.9
2022-08-17T04:40:43.715Z,62.7
2022-08-17T04:41:44.814Z,62.4
2022-08-17T04:42:45.782Z,62.1
2022-08-17T04:43:46.775Z,61.6
2022-08-17T04:44:47.734Z,61.3
2022-08-17T04:45:51.426Z,61
2022-08-17T04:46:49.856Z,60.8
2022-08-17T04:47:50.755Z,60.6
2022-08-17T04:48:51.737Z,60.5
2022-08-17T04:49:52.795Z,60.4
2022-08-17T04:50:53.795Z,60.2
2022-08-17T04:51:56.356Z,60.3
2022-08-17T04:52:56.032Z,60.1
2022-08-17T04:53:56.735Z,60.1
2022-08-17T04:54:57.714Z,59.9
2022-08-17T04:55:58.756Z,59.8
2022-08-17T04:56:59.776Z,59.7
2022-08-17T04:58:00.712Z,59.6
2022-08-17T04:59:01.875Z,59.5
2022-08-17T05:00:02.876Z,59.1
2022-08-17T05:01:04.057Z,59.4
2022-08-17T05:02:05.804Z,59.6
2022-08-17T05:03:06.835Z,59.7
2022-08-17T05:04:21.175Z,59.9
2022-08-17T05:05:08.795Z,59.9
2022-08-17T05:06:09.707Z,60.1
2022-08-17T05:07:10.795Z,60.3
2022-08-17T05:08:11.893Z,60.3
2022-08-17T05:09:12.834Z,60.2
2022-08-17T05:10:13.758Z,60.5
2022-08-17T05:11:14.759Z,60.6
2022-08-17T05:12:15.759Z,60.5
2022-08-17T05:13:16.855Z,60.4
2022-08-17T05:14:17.956Z,60.8
2022-08-17T05:15:20.022Z,60.7
2022-08-17T05:16:21.815Z,61.3
2022-08-17T05:17:22.856Z,61
2022-08-17T05:18:24.442Z,61.1
2022-08-17T05:19:24.876Z,60.6
2022-08-17T05:20:25.836Z,60.6
2022-08-17T05:21:26.875Z,60.7
2022-08-17T05:22:27.795Z,61
2022-08-17T05:23:41.555Z,60.8
2022-08-17T05:24:38.801Z,61.1
2022-08-17T05:25:31.650Z,60.8
2022-08-17T05:26:31.778Z,60.8
2022-08-17T05:27:35.344Z,60.6
2022-08-17T05:28:33.819Z,60.5
2022-08-17T05:29:35.378Z,60.4
2022-08-17T05:30:35.860Z,60.5
2022-08-17T05:31:36.816Z,59.6
2022-08-17T05:32:40.274Z,60.1
2022-08-17T05:33:43.973Z,60.4
2022-08-17T05:34:40.904Z,60.5
2022-08-17T05:35:41.917Z,60.5
2022-08-17T05:36:44.554Z,60.8
2022-08-17T05:37:43.824Z,60.1
2022-08-17T05:38:44.891Z,59.2
2022-08-17T05:39:45.830Z,59.1
2022-08-17T05:40:46.865Z,59.4
2022-08-17T05:41:47.813Z,58.5
2022-08-17T05:42:48.860Z,57.9
2022-08-17T05:43:53.031Z,57
2022-08-17T05:44:50.763Z,56.8
2022-08-17T05:45:56.006Z,57.2
2022-08-17T05:46:52.935Z,56.6
2022-08-17T05:47:53.925Z,56.1
2022-08-17T05:48:54.988Z,56.1
2022-08-17T05:49:56.837Z,55.6
2022-08-17T05:50:57.936Z,55.9
2022-08-17T05:51:58.797Z,55.8
2022-08-17T05:52:59.856Z,55.6
2022-08-17T05:54:00.857Z,54.7
2022-08-17T05:55:01.956Z,54.5
2022-08-17T05:56:02.859Z,53.2
2022-08-17T05:57:04.025Z,52.4
2022-08-17T05:58:05.976Z,51.7
2022-08-17T05:59:07.790Z,51.4
2022-08-17T06:00:09.988Z,50.7
2022-08-17T06:01:09.858Z,50.9
2022-08-17T06:02:10.815Z,51.6
2022-08-17T06:03:11.878Z,51.7
2022-08-17T06:04:12.882Z,50.9
2022-08-17T06:05:13.816Z,51.2
2022-08-17T06:06:14.903Z,51.7
2022-08-17T06:07:15.911Z,52.8
2022-08-17T06:08:16.816Z,53.4
2022-08-17T06:09:21.266Z,52.9
2022-08-17T06:10:18.776Z,52.9
2022-08-17T06:11:20.037Z,53.8
2022-08-17T06:12:20.736Z,54.2
2022-08-17T06:13:21.876Z,52.5
2022-08-17T06:14:22.843Z,51.4
2022-08-17T06:15:23.969Z,51.7
2022-08-17T06:16:26.007Z,51.5
2022-08-17T06:17:25.776Z,52
2022-08-17T06:18:26.897Z,52.2
2022-08-17T06:19:27.896Z,51.8
2022-08-17T06:20:28.986Z,50.9
2022-08-17T06:21:32.003Z,52
2022-08-17T06:22:31.824Z,51.7
2022-08-17T06:23:33.016Z,52.9
2022-08-17T06:24:34.856Z,52.4
2022-08-17T06:25:35.897Z,51.6
2022-08-17T06:26:41.020Z,50.9
2022-08-17T06:27:37.818Z,51.1
2022-08-17T06:28:38.855Z,50.8
2022-08-17T06:29:39.916Z,50.9
2022-08-17T06:30:58.514Z,50.7
2022-08-17T06:31:41.957Z,49.6
2022-08-17T06:32:42.871Z,48.7
2022-08-17T06:33:43.856Z,48.5
2022-08-17T06:34:44.876Z,48.8
2022-08-17T06:35:45.979Z,49.9
2022-08-17T06:36:46.915Z,50.3
2022-08-17T06:37:47.921Z,50.4
2022-08-17T06:38:48.868Z,50.1
2022-08-17T06:39:53.093Z,50.2
2022-08-17T06:40:54.861Z,50.1
2022-08-17T06:41:55.910Z,50.3
2022-08-17T06:43:05.059Z,51.5
2022-08-17T06:43:57.795Z,52.2
2022-08-17T06:44:58.875Z,51.3
2022-08-17T06:45:59.879Z,50.8
2022-08-17T06:47:00.944Z,50.6
2022-08-17T06:48:01.885Z,50.2
2022-08-17T06:49:03.143Z,50
2022-08-17T06:50:05.076Z,50.1
2022-08-17T06:51:06.996Z,50
2022-08-17T06:52:07.868Z,49.2
2022-08-17T06:53:08.792Z,48.8
2022-08-17T06:54:09.918Z,47.2
2022-08-17T06:55:17.899Z,46.6
2022-08-17T06:56:11.920Z,46.4
2022-08-17T06:57:12.964Z,47
2022-08-17T06:58:16.042Z,47.4
2022-08-17T06:59:16.084Z,45.7
2022-08-17T07:00:18.082Z,46.9
2022-08-17T07:01:20.144Z,45.6
2022-08-17T07:02:28.995Z,44.2
2022-08-17T07:03:24.263Z,44
2022-08-17T07:04:25.963Z,43.4
2022-08-17T07:05:27.026Z,43.8
2022-08-17T07:06:29.082Z,42.9
2022-08-17T07:07:31.041Z,43.1
2022-08-17T07:08:34.962Z,42.7
2022-08-17T07:09:35.108Z,43.8
2022-08-17T07:10:37.062Z,44.5
2022-08-17T07:11:39.182Z,42.7
2022-08-17T07:12:41.077Z,42.8
2022-08-17T07:13:43.021Z,43.3
2022-08-17T07:14:45.031Z,44.1
2022-08-17T07:15:46.062Z,44.6
2022-08-17T07:16:48.055Z,44.2
2022-08-17T07:17:50.041Z,44.2
2022-08-17T07:18:52.289Z,43.9
2022-08-17T07:19:54.137Z,42.4
2022-08-17T07:20:54.944Z,41.6
2022-08-17T07:21:55.982Z,41.7
2022-08-17T07:22:57.669Z,41.9
2022-08-17T07:23:57.990Z,41.2
2022-08-17T07:24:59.081Z,40.8
2022-08-17T07:26:01.023Z,40.5
2022-08-17T07:27:02.063Z,40.8
2022-08-17T07:28:05.991Z,40.2
2022-08-17T07:29:06.102Z,40.4
2022-08-17T07:30:10.506Z,40.9
2022-08-17T07:31:09.968Z,40.4
2022-08-17T07:32:11.005Z,40.5
2022-08-17T07:33:12.619Z,40.9
2022-08-17T07:34:13.001Z,40.2
2022-08-17T07:35:15.243Z,39.9
2022-08-17T07:36:15.022Z,40.4
2022-08-17T07:37:15.993Z,40.4
2022-08-17T07:38:24.532Z,40.4
2022-08-17T07:39:19.062Z,39.3
2022-08-17T07:40:21.369Z,39.3
2022-08-17T07:41:23.000Z,39.5
2022-08-17T07:42:24.040Z,39.6
2022-08-17T07:43:25.023Z,39.3
2022-08-17T07:44:26.000Z,40.2
2022-08-17T07:45:27.009Z,39.6
2022-08-17T07:46:28.101Z,38.5
2022-08-17T07:47:29.997Z,39.2
2022-08-17T07:48:30.981Z,38.7
2022-08-17T07:49:32.031Z,38.6
2022-08-17T07:50:33.061Z,38.2
2022-08-17T07:51:35.201Z,38.9
2022-08-17T07:52:48.587Z,38.9
2022-08-17T07:53:38.961Z,38.9
2022-08-17T07:54:40.093Z,38.5
2022-08-17T07:55:42.042Z,38.9
2022-08-17T07:56:43.041Z,38.4
2022-08-17T07:57:44.120Z,38.5
2022-08-17T07:58:46.041Z,38.6
2022-08-17T07:59:47.009Z,39.2
2022-08-17T08:00:48.041Z,40
2022-08-17T08:01:49.045Z,40.4
2022-08-17T08:02:50.049Z,40.4
2022-08-17T08:03:52.690Z,41.4
2022-08-17T08:05:01.582Z,41.4
2022-08-17T08:05:55.063Z,40.6
2022-08-17T08:06:57.119Z,41
2022-08-17T08:07:59.042Z,39.9
2022-08-17T08:09:00.070Z,40.1
2022-08-17T08:10:02.057Z,39.6
2022-08-17T08:11:03.022Z,39.7
2022-08-17T08:12:04.258Z,38.4
2022-08-17T08:13:06.297Z,37.2
2022-08-17T08:14:08.042Z,37
2022-08-17T08:15:09.069Z,36.6
2022-08-17T08:16:11.001Z,35.5
2022-08-17T08:17:12.019Z,35.3
2022-08-17T08:18:13.089Z,35.1
2022-08-17T08:19:18.201Z,34.7
2022-08-17T08:20:35.121Z,35.1
2022-08-17T08:21:18.102Z,34.1
2022-08-17T08:22:20.289Z,33.4
2022-08-17T08:23:22.061Z,33.9
2022-08-17T08:24:23.040Z,32.8
2022-08-17T08:25:24.102Z,33
2022-08-17T08:26:26.081Z,33
2022-08-17T08:27:27.990Z,33.4
2022-08-17T08:28:29.053Z,34.4
2022-08-17T08:29:30.126Z,33.2
2022-08-17T08:30:33.020Z,33.2
2022-08-17T08:31:33.171Z,33.9
2022-08-17T08:32:35.260Z,34.5
2022-08-17T08:33:37.261Z,33.9
2022-08-17T08:34:44.694Z,34.9
2022-08-17T08:35:41.061Z,34
2022-08-17T08:36:56.530Z,34.5
2022-08-17T08:37:43.440Z,34
2022-08-17T08:38:44.042Z,33.4
2022-08-17T08:39:45.077Z,33.3
2022-08-17T08:40:46.041Z,33.9
2022-08-17T08:41:47.020Z,33.3
2022-08-17T08:42:48.021Z,32.7
2022-08-17T08:43:52.747Z,32.4
2022-08-17T08:45:01.212Z,32.6
2022-08-17T08:45:52.061Z,32.7
2022-08-17T08:46:53.087Z,32.5
2022-08-17T08:47:55.082Z,32.8
2022-08-17T08:48:58.399Z,33.3
2022-08-17T08:50:05.504Z,33.1
2022-08-17T08:51:02.008Z,33.5
2022-08-17T08:52:03.128Z,32.5
2022-08-17T08:53:05.330Z,32.2
2022-08-17T08:54:07.320Z,32.5
2022-08-17T08:55:09.103Z,31.7
2022-08-17T08:56:11.090Z,31.5
2022-08-17T08:57:24.128Z,31.2
2022-08-17T08:58:30.791Z,31.4
2022-08-17T08:59:15.070Z,31.8
2022-08-17T09:00:16.161Z,30
2022-08-17T09:01:18.175Z,29.7
2022-08-17T09:02:20.327Z,30.3
2022-08-17T09:03:31.688Z,30.6
2022-08-17T09:04:25.655Z,30.7
2022-08-17T09:05:25.102Z,30.5
2022-08-17T09:06:28.643Z,30.6
2022-08-17T09:07:38.921Z,31
2022-08-17T09:08:40.081Z,30.1
2022-08-17T09:09:41.070Z,29.9
2022-08-17T09:10:42.168Z,29.5
2022-08-17T09:12:01.591Z,29.4
2022-08-17T09:12:46.121Z,30.5
2022-08-17T09:13:52.902Z,30.9
2022-08-17T09:14:50.082Z,30
2022-08-17T09:15:51.102Z,29.1
2022-08-17T09:16:52.062Z,28.6
2022-08-17T09:18:08.816Z,28.4
2022-08-17T09:18:59.693Z,28.4
2022-08-17T09:19:56.116Z,27.8
2022-08-17T09:20:58.081Z,27.1
2022-08-17T09:22:04.182Z,27
2022-08-17T09:23:06.380Z,26.9
2022-08-17T09:24:08.185Z,27.1
2022-08-17T09:25:10.060Z,27.4
2022-08-17T09:26:11.082Z,26.9
2022-08-17T09:27:12.101Z,27.1
2022-08-17T09:28:13.311Z,27.7
2022-08-17T09:29:15.217Z,28.6
2022-08-17T09:30:17.245Z,28.6
2022-08-17T09:31:19.163Z,28.9
2022-08-17T09:32:21.342Z,29.2
2022-08-17T09:33:23.221Z,29.2
2022-08-17T09:34:32.172Z,28.1
2022-08-17T09:35:32.985Z,27.9
2022-08-17T09:36:27.094Z,28.3
2022-08-17T09:37:28.082Z,28.8
2022-08-17T09:38:32.273Z,29.4
2022-08-17T09:39:31.252Z,29.4
2022-08-17T09:40:33.249Z,29.5
2022-08-17T09:41:35.041Z,29.3
2022-08-17T09:42:36.055Z,28.9
2022-08-17T09:43:37.161Z,29.1
2022-08-17T09:44:39.122Z,29.5
2022-08-17T09:45:40.076Z,29.2
2022-08-17T09:46:41.182Z,29.4
2022-08-17T09:47:42.994Z,29.6
2022-08-17T09:48:44.213Z,29.1
2022-08-17T09:49:46.141Z,28.7
2022-08-17T09:50:55.693Z,28.7
2022-08-17T09:51:49.148Z,29.7
2022-08-17T09:52:51.220Z,28.9
2022-08-17T09:53:53.161Z,29.2
2022-08-17T09:54:55.703Z,29.1
2022-08-17T09:55:57.422Z,28.3
2022-08-17T09:57:18.360Z,27.8
2022-08-17T09:58:01.089Z,27.8
2022-08-17T09:59:02.404Z,28.1
2022-08-17T10:00:03.389Z,28.1
2022-08-17T10:01:05.310Z,28.8
2022-08-17T10:02:07.340Z,28.9
2022-08-17T10:03:09.161Z,28.4
2022-08-17T10:04:11.106Z,27.8
2022-08-17T10:05:12.173Z,28.2
2022-08-17T10:06:14.068Z,27.1
2022-08-17T10:07:15.114Z,26.5
2022-08-17T10:08:16.182Z,26.9
2022-08-17T10:09:18.181Z,26.8
2022-08-17T10:10:20.242Z,27.2
2022-08-17T10:11:22.407Z,27.1
2022-08-17T10:12:29.750Z,27.3
2022-08-17T10:13:25.227Z,27.3
2022-08-17T10:14:37.088Z,26.3
2022-08-17T10:15:29.211Z,26.1
2022-08-17T10:16:31.304Z,25.8
2022-08-17T10:17:33.503Z,26
2022-08-17T10:18:35.332Z,26
2022-08-17T10:19:37.261Z,26.3
2022-08-17T10:20:39.193Z,27
2022-08-17T10:21:41.160Z,27
2022-08-17T10:22:43.040Z,26.4
2022-08-17T10:23:44.122Z,25.6
2022-08-17T10:25:01.806Z,25.2
2022-08-17T10:25:54.911Z,26
2022-08-17T10:26:55.854Z,26.1
2022-08-17T10:27:51.334Z,26.2
2022-08-17T10:28:53.134Z,26.1
2022-08-17T10:29:54.113Z,26.2
2022-08-17T10:31:05.426Z,25.8
2022-08-17T10:31:57.196Z,26
2022-08-17T10:32:59.186Z,26.4
2022-08-17T10:34:01.165Z,26.8
2022-08-17T10:35:03.401Z,26.6
2022-08-17T10:36:10.246Z,26.4
2022-08-17T10:37:07.202Z,26.6
2022-08-17T10:38:09.169Z,27
2022-08-17T10:39:11.152Z,26.3
2022-08-17T10:40:12.194Z,26.6
2022-08-17T10:41:13.180Z,26.5
2022-08-17T10:42:15.219Z,25.2
2022-08-17T10:43:17.201Z,25.9
2022-08-17T10:44:37.756Z,26.1
2022-08-17T10:45:20.147Z,25.9
2022-08-17T10:46:29.961Z,26.2
2022-08-17T10:47:23.140Z,26.4
2022-08-17T10:48:24.242Z,26.2
2022-08-17T10:49:26.187Z,26.4
2022-08-17T10:50:28.128Z,26.7
2022-08-17T10:51:29.201Z,27
2022-08-17T10:52:33.740Z,26.7
2022-08-17T10:53:35.296Z,27.1
2022-08-17T10:54:37.148Z,26
2022-08-17T10:55:38.142Z,26.3
2022-08-17T10:56:39.180Z,25.9
2022-08-17T10:57:41.180Z,25.6
2022-08-17T10:58:43.141Z,26
2022-08-17T10:59:44.160Z,25.8
2022-08-17T11:00:45.285Z,25.5
2022-08-17T11:01:47.241Z,26.3
2022-08-17T11:02:49.806Z,26.9
2022-08-17T11:03:51.160Z,26.9
2022-08-17T11:04:52.121Z,26.1
2022-08-17T11:05:53.222Z,25.9
2022-08-17T11:06:55.211Z,26.2
2022-08-17T11:07:57.294Z,26.2
2022-08-17T11:08:59.321Z,26.4
2022-08-17T11:10:01.220Z,26.9
2022-08-17T11:11:03.326Z,26.3
2022-08-17T11:12:05.220Z,26.2
2022-08-17T11:13:07.235Z,25.1
2022-08-17T11:14:09.111Z,24.9
2022-08-17T11:15:10.209Z,24.5
2022-08-17T11:16:12.128Z,24.8
2022-08-17T11:17:13.169Z,24.4
2022-08-17T11:18:14.200Z,23.9
2022-08-17T11:19:16.240Z,23.9
2022-08-17T11:20:18.220Z,24
2022-08-17T11:21:20.121Z,24.2
2022-08-17T11:22:21.100Z,24.7
2022-08-17T11:23:22.179Z,25.1
2022-08-17T11:24:23.199Z,24.7
2022-08-17T11:25:25.159Z,24.5
2022-08-17T11:26:26.335Z,24.3
2022-08-17T11:27:28.181Z,24.7
2022-08-17T11:28:29.226Z,25
2022-08-17T11:29:31.447Z,24.6
2022-08-17T11:30:33.287Z,24.3
2022-08-17T11:31:38.153Z,24
2022-08-17T11:32:37.308Z,24.2
2022-08-17T11:33:39.219Z,24
2022-08-17T11:34:41.300Z,23.8
2022-08-17T11:35:43.111Z,23.4
2022-08-17T11:36:44.229Z,23.7
2022-08-17T11:37:46.201Z,23.4
2022-08-17T11:38:48.221Z,23.7
2022-08-17T11:39:50.690Z,23.4
2022-08-17T11:40:52.124Z,24
2022-08-17T11:41:53.220Z,23.9
2022-08-17T11:42:55.169Z,24
2022-08-17T11:43:56.260Z,24
2022-08-17T11:44:58.266Z,24
2022-08-17T11:46:00.447Z,24.8
2022-08-17T11:47:02.228Z,24.8
2022-08-17T11:48:27.560Z,24.6
2022-08-17T11:49:06.480Z,24.1
2022-08-17T11:50:08.348Z,25.5
2022-08-17T11:51:10.160Z,25.6
2022-08-17T11:52:11.198Z,24.7
2022-08-17T11:53:12.138Z,23.8
2022-08-17T11:54:32.044Z,23.1
2022-08-17T11:55:34.329Z,23
2022-08-17T11:56:17.302Z,22.5
2022-08-17T11:57:19.259Z,22.8
2022-08-17T11:58:21.399Z,22.9
2022-08-17T11:59:23.199Z,22.3
2022-08-17T12:00:24.219Z,23.5
2022-08-17T12:01:26.468Z,23.2
2022-08-17T12:02:29.811Z,23.7
2022-08-17T12:03:29.265Z,23.9
2022-08-17T12:04:31.235Z,23.7
2022-08-17T12:05:32.159Z,23.8
2022-08-17T12:06:33.327Z,24.2
2022-08-17T12:07:35.103Z,24.2
2022-08-17T12:08:36.400Z,24.3
2022-08-17T12:09:38.399Z,24.3
2022-08-17T12:10:40.238Z,24.8
2022-08-17T12:11:55.070Z,25.4
2022-08-17T12:12:44.320Z,25.7
2022-08-17T12:13:46.220Z,25.8
2022-08-17T12:15:50.203Z,26
2022-08-17T12:16:51.178Z,25.2
2022-08-17T12:17:52.868Z,25.4
2022-08-17T12:18:54.217Z,25.4
2022-08-17T12:19:55.279Z,25.3
2022-08-17T12:20:57.179Z,25.2
2022-08-17T12:21:58.160Z,25.6
2022-08-17T12:22:59.379Z,25.7
2022-08-17T12:24:01.179Z,25.3
2022-08-17T12:25:02.172Z,25.6
2022-08-17T12:26:03.306Z,24.9
2022-08-17T12:27:05.263Z,24.3
2022-08-17T12:28:07.908Z,24.5
2022-08-17T12:29:09.464Z,24.8
2022-08-17T12:30:10.296Z,25.1
2022-08-17T12:31:12.407Z,25.2
2022-08-17T12:32:14.260Z,24.8
2022-08-17T12:33:24.935Z,24.6
2022-08-17T12:34:18.300Z,23.9
2022-08-17T12:35:20.217Z,23.4
2022-08-17T12:36:21.319Z,23.2
2022-08-17T12:37:23.223Z,23.4
2022-08-17T12:38:32.892Z,23.2
2022-08-17T12:39:26.205Z,23
2022-08-17T12:40:37.050Z,24
2022-08-17T12:41:38.221Z,24.4
2022-08-17T12:42:39.279Z,24.1
2022-08-17T12:43:41.321Z,24.8
2022-08-17T12:44:50.357Z,25.9
2022-08-17T12:45:45.139Z,24.6
2022-08-17T12:46:46.267Z,24
2022-08-17T12:47:48.227Z,24.3
2022-08-17T12:48:55.016Z,26.1
2022-08-17T12:49:51.406Z,26.6
2022-08-17T12:50:53.240Z,24.9
2022-08-17T12:51:54.219Z,24.6
2022-08-17T12:52:58.510Z,24.3
2022-08-17T12:53:56.327Z,25.4
2022-08-17T12:54:58.179Z,25.2
2022-08-17T12:55:59.229Z,25.6
2022-08-17T12:57:00.259Z,24.2
2022-08-17T12:58:02.498Z,24
2022-08-17T12:59:04.258Z,24.4
2022-08-17T13:00:06.561Z,24.8
2022-08-17T13:01:08.548Z,24.5
2022-08-17T13:02:10.362Z,24.4
2022-08-17T13:03:12.759Z,23.9
2022-08-17T13:04:14.238Z,23.4
2022-08-17T13:05:15.278Z,23.3
2022-08-17T13:06:17.220Z,22.4
2022-08-17T13:07:18.228Z,21.9
2022-08-17T13:08:19.373Z,21.8
2022-08-17T13:09:21.199Z,21.9
2022-08-17T13:10:22.299Z,22
2022-08-17T13:11:24.300Z,22
2022-08-17T13:12:26.420Z,22.5
2022-08-17T13:13:28.347Z,22.5
2022-08-17T13:14:30.537Z,22.4
2022-08-17T13:15:32.281Z,22
2022-08-17T13:16:34.284Z,22.5
2022-08-17T13:17:36.230Z,22.4
2022-08-17T13:18:37.259Z,22.3
2022-08-17T13:19:40.657Z,22.4
2022-08-17T13:20:39.288Z,22.2
2022-08-17T13:21:41.200Z,22.5
2022-08-17T13:22:42.239Z,22.8
2022-08-17T13:23:48.854Z,22.9
2022-08-17T13:24:44.240Z,22.8
2022-08-17T13:25:45.259Z,23.1
2022-08-17T13:26:46.179Z,23
2022-08-17T13:27:47.301Z,23.5
2022-08-17T13:28:49.242Z,23.6
2022-08-17T13:29:51.255Z,23.3
2022-08-17T13:30:51.322Z,23.2
2022-08-17T13:31:56.550Z,23
2022-08-17T13:32:55.833Z,22.5
2022-08-17T13:33:57.359Z,22.9
2022-08-17T13:35:13.441Z,23.6
2022-08-17T13:36:01.320Z,24.4
2022-08-17T13:37:03.344Z,23.9
2022-08-17T13:38:05.299Z,23.7
2022-08-17T13:39:07.570Z,23
2022-08-17T13:40:09.481Z,22.8
2022-08-17T13:41:11.282Z,22.1
2022-08-17T13:42:13.704Z,21.5
2022-08-17T13:43:15.239Z,21.3
2022-08-17T13:44:16.241Z,21
2022-08-17T13:45:32.268Z,21.1
2022-08-17T13:46:19.328Z,21.9